WMKK/KUL METAR and TAF weather

Enter ICAO airport designator
Station Type Date Time Source
WMKK METAR 2018/12/13 19:30 UTC NOAA

WMKK 131930Z 00000KT 9999 FEW017CB SCT140 BKN280 25/23 Q1010 NOSIG


Station Type Date Time Source
WMKK Decoded METAR 2018/12/13 19:30 UTC NOAA

Sepang/KL International Airport, Malaysia (WMKK) 02-44N 101-42E 22M
Dec 13, 2018 - 02:30 PM EST / 2018.12.13 1930 UTC
Wind: Calm:0
Visibility: greater than 7 mile(s):0
Sky conditions: mostly cloudy
Weather: Cumulonimbus clouds observed
Temperature: 77 F (25 C)
Dew Point: 73 F (23 C)
Relative Humidity: 88%
Pressure (altimeter): 29.83 in. Hg (1010 hPa)
ob: WMKK 131930Z 00000KT 9999 FEW017CB SCT140 BKN280 25/23 Q1010 NOSIG
cycle: 19

Station Type Date Time Source
WMKK TAF 2018/12/13 18:06 UTC NOAA

TAF WMKK 131700Z 1318/1500 08005KT 9999 FEW017CB
BECMG 1402/1403 16005KT FEW020


Example: see airport list